Time;durP1;ratioP1;P1;durP2;ratioP2;P2;SDS_P1;SDS_P2;PMS_P1;PMS_P2;Temp;Humidity;BMP_temperature;BMP_pressure;BME280_temperature;BME280_humidity;BME280_pressure;Samples;Min_cycle;Max_cycle;Signal;HPM_P1;HPM_P2
2022/05/11 00:01:42;;;;;;;0.20;0.20;;;;;;;8.61;99.44;99786.59;5085196;28;20020;-69
2022/05/11 00:04:09;;;;;;;0.30;0.30;;;;;;;8.59;99.54;99779.72;5084923;28;20020;-70
2022/05/11 00:06:36;;;;;;;0.20;0.20;;;;;;;8.58;99.75;99784.03;5084580;28;20027;-72
2022/05/11 00:09:03;;;;;;;0.30;0.30;;;;;;;8.58;99.67;99786.63;5084827;28;20286;-69
2022/05/11 00:11:29;;;;;;;0.20;0.20;;;;;;;8.58;99.70;99790.94;5084914;28;20016;-69
2022/05/11 00:13:56;;;;;;;0.20;0.20;;;;;;;8.55;99.67;99782.34;5084762;28;20021;-70
2022/05/11 00:16:22;;;;;;;0.20;0.20;;;;;;;8.57;99.73;99784.91;5084887;28;20024;-69
2022/05/11 00:18:48;;;;;;;0.38;0.38;;;;;;;8.58;99.82;99773.69;5084091;28;20021;-69
2022/05/11 00:21:13;;;;;;;0.20;0.20;;;;;;;8.55;99.87;99773.72;5084298;28;20024;-70
2022/05/11 00:23:39;;;;;;;0.20;0.20;;;;;;;8.59;99.82;99779.72;5084738;28;20020;-69
2022/05/11 00:26:04;;;;;;;0.30;0.30;;;;;;;8.58;99.83;99773.69;5084554;28;20088;-70
2022/05/11 00:28:30;;;;;;;0.20;0.20;;;;;;;8.56;99.78;99765.09;5084674;28;20042;-71
2022/05/11 00:30:55;;;;;;;0.20;0.20;;;;;;;8.56;99.63;99767.69;5084494;28;20025;-69
2022/05/11 00:33:21;;;;;;;0.20;0.20;;;;;;;8.58;99.67;99770.25;5084479;28;20056;-69
2022/05/11 00:35:49;;;;;;;0.20;0.20;;;;;;;8.58;99.85;99771.09;5066103;28;20024;-71
2022/05/11 00:38:18;;;;;;;0.20;0.20;;;;;;;8.60;99.83;99779.69;5083826;28;20056;-72
2022/05/11 00:40:50;;;;;;;0.20;0.20;;;;;;;8.58;99.93;99778.84;5084246;28;20021;-71
2022/05/11 00:43:24;;;;;;;;;;;;;;;8.64;99.84;99780.53;5084599;28;20190;-70
2022/05/11 00:45:50;;;;;;;0.20;0.20;;;;;;;8.61;100.00;99777.97;5084076;28;19908;-69
2022/05/11 00:51:11;;;;;;;0.20;0.20;;;;;;;8.68;100.00;99779.63;5084086;28;20031;-70
2022/05/11 00:53:40;;;;;;;0.20;0.20;;;;;;;8.71;100.00;99781.31;5084034;28;20024;-70
2022/05/11 00:56:05;;;;;;;0.20;0.20;;;;;;;8.74;100.00;99776.13;5065946;28;20042;-70
2022/05/11 00:58:37;;;;;;;0.30;0.30;;;;;;;8.75;100.00;99780.41;5083840;28;20028;-69
2022/05/11 01:01:03;;;;;;;0.20;0.20;;;;;;;8.83;100.00;99781.19;5084010;28;20080;-69
2022/05/11 01:03:38;;;;;;;0.30;0.30;;;;;;;8.87;100.00;99776.81;5084176;28;20032;-70
2022/05/11 01:06:06;;;;;;;0.20;0.20;;;;;;;8.91;100.00;99771.59;5083646;28;20032;-69
2022/05/11 01:08:32;;;;;;;0.20;0.20;;;;;;;8.94;100.00;99768.13;5083540;28;20080;-69
2022/05/11 01:11:01;;;;;;;0.20;0.20;;;;;;;8.93;100.00;99761.22;5083724;28;20051;-70
2022/05/11 01:13:26;;;;;;;0.20;0.20;;;;;;;9.01;100.00;99764.56;5065551;28;20092;-70
2022/05/11 01:15:52;;;;;;;0.20;0.20;;;;;;;9.03;100.00;99773.19;5083779;28;20028;-69
2022/05/11 01:18:19;;;;;;;0.30;0.30;;;;;;;8.95;100.00;99761.19;5082816;28;20080;-70
2022/05/11 01:20:45;;;;;;;0.20;0.20;;;;;;;9.08;100.00;99770.53;5083591;28;20093;-70
2022/05/11 01:23:16;;;;;;;0.20;0.20;;;;;;;9.12;100.00;99772.19;5083692;28;20020;-70
2022/05/11 01:25:42;;;;;;;0.30;0.30;;;;;;;9.09;100.00;99767.06;5083627;28;20016;-70
2022/05/11 01:28:14;;;;;;;0.20;0.20;;;;;;;9.14;100.00;99775.63;5083504;28;20016;-69
2022/05/11 01:30:42;;;;;;;0.30;0.30;;;;;;;9.15;100.00;99777.34;5083530;28;20053;-70
2022/05/11 01:33:12;;;;;;;0.20;0.20;;;;;;;9.17;100.00;99778.19;5083008;28;20082;-70
2022/05/11 01:35:56;;;;;;;0.20;0.20;;;;;;;9.21;100.00;99781.59;5082110;28;20246;-69
2022/05/11 01:38:37;;;;;;;0.20;0.20;;;;;;;9.16;100.00;99773.91;5082935;28;20033;-70
2022/05/11 01:41:03;;;;;;;0.35;0.35;;;;;;;9.25;100.00;99788.44;5083439;28;20380;-70
2022/05/11 01:43:32;;;;;;;0.20;0.20;;;;;;;9.25;100.00;99791.03;5083091;28;20044;-70
2022/05/11 01:45:57;;;;;;;0.30;0.30;;;;;;;9.28;100.00;99784.97;5083264;28;20021;-70
2022/05/11 01:48:23;;;;;;;0.30;0.30;;;;;;;9.29;100.00;99781.50;5083301;28;20021;-70
2022/05/11 01:50:49;;;;;;;0.20;0.20;;;;;;;9.25;100.00;99766.88;5083364;28;20697;-70
2022/05/11 01:53:14;;;;;;;0.20;0.20;;;;;;;9.26;100.00;99778.94;5065089;28;20044;-70
2022/05/11 01:55:40;;;;;;;0.30;0.30;;;;;;;9.25;99.97;99774.66;5083039;28;20496;-70
2022/05/11 01:58:07;;;;;;;0.20;0.20;;;;;;;9.27;100.00;99783.25;5082967;28;20039;-70
2022/05/11 02:00:34;;;;;;;0.20;0.20;;;;;;;9.27;100.00;99780.66;5083163;28;20048;-70
2022/05/11 02:02:59;;;;;;;0.20;0.20;;;;;;;9.29;100.00;99789.28;5082943;28;20032;-70
2022/05/11 02:08:09;;;;;;;0.20;0.20;;;;;;;9.29;100.00;99773.72;5083297;28;20027;-70
2022/05/11 02:10:35;;;;;;;0.20;0.20;;;;;;;9.32;100.00;99771.09;5082986;28;20028;-70
2022/05/11 02:13:00;;;;;;;0.20;0.20;;;;;;;9.31;99.94;99774.56;5083049;28;20051;-70
2022/05/11 02:15:26;;;;;;;0.20;0.20;;;;;;;9.28;99.93;99772.84;5082996;28;20033;-70
2022/05/11 02:17:52;;;;;;;0.20;0.20;;;;;;;9.28;100.00;99772.03;5082887;28;20584;-70
2022/05/11 02:20:18;;;;;;;0.20;0.20;;;;;;;9.27;99.99;99770.28;5083054;28;20028;-70
2022/05/11 02:22:44;;;;;;;0.30;0.30;;;;;;;9.22;100.00;99777.28;5082842;28;20026;-70
2022/05/11 02:25:11;;;;;;;0.30;0.30;;;;;;;9.17;99.91;99774.72;5082952;28;20029;-70
2022/05/11 02:27:37;;;;;;;0.30;0.30;;;;;;;9.09;100.00;99766.22;5082627;28;20040;-70
2022/05/11 02:30:04;;;;;;;0.20;0.20;;;;;;;9.10;100.00;99773.97;5086343;28;20017;-70
2022/05/11 02:32:29;;;;;;;0.30;0.30;;;;;;;9.04;99.98;99769.72;5086972;28;20024;-70
2022/05/11 02:35:13;;;;;;;0.20;0.20;;;;;;;9.05;99.89;99768.84;5068541;28;20092;-70
2022/05/11 02:37:41;;;;;;;0.30;0.30;;;;;;;9.01;100.00;99764.56;5086246;28;20044;-69
2022/05/11 02:40:07;;;;;;;0.30;0.30;;;;;;;9.00;100.00;99767.19;5086675;28;20047;-70
2022/05/11 02:42:32;;;;;;;0.20;0.20;;;;;;;9.02;100.00;99755.06;5086491;28;20030;-70
2022/05/11 02:44:58;;;;;;;0.22;0.22;;;;;;;9.04;100.00;99758.50;5086648;28;20024;-70
2022/05/11 02:47:23;;;;;;;0.30;0.30;;;;;;;9.04;100.00;99748.16;5086373;28;20024;-69
2022/05/11 02:49:48;;;;;;;0.20;0.20;;;;;;;9.02;100.00;99747.31;5086663;28;20025;-69
2022/05/11 02:52:14;;;;;;;0.30;0.30;;;;;;;9.06;100.00;99743.78;5068304;28;20051;-70
2022/05/11 02:54:41;;;;;;;0.30;0.30;;;;;;;9.06;100.00;99738.63;5086539;28;20519;-71
2022/05/11 02:57:07;;;;;;;0.20;0.20;;;;;;;9.14;100.00;99751.47;5086893;28;20036;-69
2022/05/11 02:59:32;;;;;;;0.30;0.30;;;;;;;9.16;100.00;99748.00;5086238;28;20017;-70
2022/05/11 03:01:57;;;;;;;0.20;0.20;;;;;;;9.17;100.00;99731.56;5086331;28;20082;-71
2022/05/11 03:04:23;;;;;;;0.20;0.20;;;;;;;9.20;100.00;99743.59;5086074;28;20021;-70
2022/05/11 03:06:49;;;;;;;0.20;0.20;;;;;;;9.25;100.00;99741.81;5085848;28;20016;-70
2022/05/11 03:09:15;;;;;;;0.30;0.30;;;;;;;9.29;100.00;99732.28;5086011;28;20017;-70
2022/05/11 03:11:41;;;;;;;0.30;0.30;;;;;;;9.35;100.00;99742.56;5085779;28;20403;-69
2022/05/11 03:14:06;;;;;;;0.20;0.20;;;;;;;9.41;100.00;99736.41;5086013;28;20025;-71
2022/05/11 03:16:32;;;;;;;0.25;0.25;;;;;;;9.43;100.00;99732.06;5067880;28;20023;-71
2022/05/11 03:18:59;;;;;;;0.25;0.25;;;;;;;9.50;100.00;99738.91;5085871;28;20024;-71
2022/05/11 03:21:25;;;;;;;0.30;0.30;;;;;;;9.51;100.00;99742.31;5085660;28;20052;-71
2022/05/11 03:23:50;;;;;;;0.28;0.28;;;;;;;9.52;100.00;99739.72;5085734;28;20021;-71
2022/05/11 03:26:15;;;;;;;0.20;0.20;;;;;;;9.54;100.00;99743.16;5085627;28;20024;-70
2022/05/11 03:28:41;;;;;;;0.20;0.20;;;;;;;9.56;100.00;99732.75;5084602;28;20019;-70
2022/05/11 03:31:06;;;;;;;0.20;0.20;;;;;;;9.58;100.00;99735.31;5085149;28;20021;-71
2022/05/11 03:36:16;;;;;;;0.20;0.20;;;;;;;9.61;100.00;99727.50;5085305;28;20409;-71
2022/05/11 03:38:41;;;;;;;0.30;0.30;;;;;;;9.71;100.00;99729.09;5085441;28;20052;-70
2022/05/11 03:41:06;;;;;;;0.20;0.20;;;;;;;9.76;100.00;99736.78;5084780;28;20021;-70
2022/05/11 03:43:32;;;;;;;0.20;0.20;;;;;;;9.82;100.00;99744.47;5085521;28;20025;-70
2022/05/11 03:45:59;;;;;;;0.22;0.22;;;;;;;9.85;100.00;99734.03;5067341;28;20024;-70
2022/05/11 03:48:25;;;;;;;0.30;0.30;;;;;;;9.89;100.00;99730.50;5085461;28;20051;-70
2022/05/11 03:50:50;;;;;;;0.20;0.20;;;;;;;9.95;100.00;99726.09;5085032;28;20071;-70
2022/05/11 03:53:16;;;;;;;0.20;0.20;;;;;;;10.10;100.00;99741.41;5085403;28;20025;-70
2022/05/11 03:55:41;;;;;;;0.20;0.20;;;;;;;10.17;100.00;99732.63;5085122;28;20032;-70
2022/05/11 03:58:07;;;;;;;0.30;0.30;;;;;;;10.28;100.00;99739.38;5084938;28;20044;-70
2022/05/11 04:00:32;;;;;;;0.25;0.25;;;;;;;10.42;100.00;99733.91;5084922;28;20050;-70
2022/05/11 04:02:58;;;;;;;0.20;0.20;;;;;;;10.37;100.00;99723.63;5084955;28;20029;-71
2022/05/11 04:05:24;;;;;;;0.20;0.20;;;;;;;10.41;100.00;99740.00;5085234;28;20021;-70
2022/05/11 04:07:49;;;;;;;0.20;0.20;;;;;;;10.36;100.00;99734.91;5084567;28;20024;-70
2022/05/11 04:10:17;;;;;;;0.20;0.20;;;;;;;10.38;100.00;99738.31;5066721;28;20138;-71
2022/05/11 04:12:43;;;;;;;0.20;0.20;;;;;;;10.40;100.00;99727.91;5084819;28;20029;-70
2022/05/11 04:15:09;;;;;;;0.20;0.20;;;;;;;10.43;100.00;99732.19;5084770;28;20032;-70
2022/05/11 04:17:35;;;;;;;0.20;0.20;;;;;;;10.44;100.00;99733.88;5084526;28;20028;-71
2022/05/11 04:20:01;;;;;;;0.20;0.20;;;;;;;10.46;100.00;99739.91;5084609;28;20024;-71
2022/05/11 04:22:26;;;;;;;0.20;0.20;;;;;;;10.50;100.00;99737.25;5084644;28;20052;-74
2022/05/11 04:24:51;;;;;;;0.20;0.20;;;;;;;10.52;100.00;99738.09;5084647;28;20020;-75
2022/05/11 04:27:16;;;;;;;0.20;0.20;;;;;;;10.54;100.00;99725.94;5084781;28;20024;-74
2022/05/11 04:29:42;;;;;;;0.20;0.20;;;;;;;10.66;100.00;99724.84;5084327;28;20183;-75
2022/05/11 04:32:10;;;;;;;0.20;0.20;;;;;;;10.76;100.00;99733.31;5084472;28;20042;-70
2022/05/11 04:34:39;;;;;;;0.20;0.20;;;;;;;10.88;100.00;99728.72;5084443;28;20025;-71
2022/05/11 04:37:04;;;;;;;0.30;0.30;;;;;;;10.94;100.00;99714.78;5084024;28;20068;-71
2022/05/11 04:39:30;;;;;;;0.20;0.20;;;;;;;11.19;100.00;99722.03;5084193;28;20075;-71
2022/05/11 04:41:55;;;;;;;0.20;0.20;;;;;;;11.42;100.00;99710.28;5084378;28;20028;-73
2022/05/11 04:44:20;;;;;;;0.20;0.20;;;;;;;11.90;100.00;99714.34;5084447;28;20029;-72
2022/05/11 04:46:46;;;;;;;0.20;0.20;;;;;;;12.55;100.00;99710.94;5084288;28;20133;-71
2022/05/11 04:49:19;;;;;;;0.20;0.20;;;;;;;13.17;100.00;99710.91;5084123;28;20040;-65
2022/05/11 04:51:50;;;;;;;0.20;0.20;;;;;;;13.62;100.00;99710.41;5083231;28;20419;-71
2022/05/11 04:54:16;;;;;;;0.43;0.43;;;;;;;13.87;100.00;99716.56;5084104;28;20095;-70
2022/05/11 04:56:42;;;;;;;0.20;0.20;;;;;;;13.97;100.00;99719.72;5083960;28;20050;-68
2022/05/11 04:59:08;;;;;;;0.20;0.20;;;;;;;14.06;100.00;99719.41;5083739;28;20024;-68
2022/05/11 05:01:35;;;;;;;0.20;0.20;;;;;;;14.06;100.00;99718.53;5083625;28;20108;-69
2022/05/11 05:04:01;;;;;;;0.20;0.20;;;;;;;14.27;100.00;99721.31;5083716;28;20043;-70
2022/05/11 05:06:27;;;;;;;0.20;0.20;;;;;;;14.31;100.00;99715.97;5083714;28;20033;-69
2022/05/11 05:08:55;;;;;;;0.20;0.20;;;;;;;14.35;100.00;99716.69;5083644;28;20016;-69
2022/05/11 05:11:20;;;;;;;0.20;0.20;;;;;;;14.21;100.00;99701.50;5083824;28;20039;-69
2022/05/11 05:13:46;;;;;;;0.35;0.35;;;;;;;14.02;100.00;99696.06;5083740;28;20140;-69
2022/05/11 05:16:11;;;;;;;0.20;0.20;;;;;;;13.94;100.00;99709.38;5083775;28;20024;-69
2022/05/11 05:18:36;;;;;;;0.20;0.20;;;;;;;13.90;100.00;99697.34;5083712;28;20244;-70
2022/05/11 05:21:02;;;;;;;0.20;0.20;;;;;;;14.01;100.00;99716.09;5083486;28;20044;-68
2022/05/11 05:23:27;;;;;;;0.20;0.20;;;;;;;14.04;100.00;99718.59;5083195;28;20047;-67
2022/05/11 05:25:53;;;;;;;0.20;0.20;;;;;;;14.03;100.00;99705.59;5083277;28;20384;-67
2022/05/11 05:31:06;;;;;;;0.20;0.20;;;;;;;13.93;100.00;99703.28;5083126;28;20334;-70
2022/05/11 05:33:35;;;;;;;0.20;0.20;;;;;;;13.85;100.00;99700.94;5083007;28;20444;-71
2022/05/11 05:36:02;;;;;;;0.20;0.20;;;;;;;13.77;100.00;99699.50;5082885;28;20111;-71
2022/05/11 05:38:27;;;;;;;0.20;0.20;;;;;;;13.91;100.00;99701.66;5082954;28;20047;-72
2022/05/11 05:40:55;;;;;;;0.20;0.20;;;;;;;13.99;100.00;99707.47;5064829;28;20016;-71
2022/05/11 05:43:21;;;;;;;0.20;0.20;;;;;;;14.05;100.00;99709.00;5082564;28;20016;-71
2022/05/11 05:45:51;;;;;;;0.20;0.20;;;;;;;14.32;100.00;99708.97;5083017;28;20055;-71
2022/05/11 05:48:18;;;;;;;0.20;0.20;;;;;;;14.91;100.00;99708.63;5083184;28;20021;-72
2022/05/11 05:50:44;;;;;;;0.20;0.20;;;;;;;15.29;100.00;99710.69;5082766;28;20020;-73
2022/05/11 05:53:09;;;;;;;0.13;0.13;;;;;;;15.22;100.00;99710.06;5083091;28;20088;-72
2022/05/11 05:55:34;;;;;;;0.10;0.10;;;;;;;15.10;100.00;99700.91;5064802;28;20036;-73
2022/05/11 05:58:00;;;;;;;0.20;0.20;;;;;;;15.09;99.91;99702.72;5064711;28;20028;-71
2022/05/11 06:00:26;;;;;;;0.20;0.20;;;;;;;15.06;99.14;99702.81;5083181;28;20084;-71
2022/05/11 06:02:54;;;;;;;0.20;0.20;;;;;;;14.95;98.68;99694.53;5083157;28;20021;-72
2022/05/11 06:05:19;;;;;;;0.20;0.20;;;;;;;14.94;98.88;99698.03;5089734;28;20579;-72
2022/05/11 06:07:45;;;;;;;0.20;0.20;;;;;;;14.84;98.35;99690.56;5088713;28;20101;-73
2022/05/11 06:10:10;;;;;;;0.20;0.20;;;;;;;14.58;97.54;99687.16;5089149;28;20069;-73
2022/05/11 06:12:36;;;;;;;0.20;0.20;;;;;;;14.40;97.49;99685.19;5088660;28;20166;-72
2022/05/11 06:15:02;;;;;;;0.30;0.30;;;;;;;14.14;96.49;99690.41;5069866;28;20103;-73
2022/05/11 06:17:28;;;;;;;0.20;0.20;;;;;;;13.84;96.27;99681.00;5088988;28;20024;-73
2022/05/11 06:19:54;;;;;;;0.20;0.20;;;;;;;13.63;96.59;99680.81;5088552;28;20096;-73
2022/05/11 06:22:19;;;;;;;0.63;0.63;;;;;;;13.43;96.63;99683.19;5088866;28;20043;-73
2022/05/11 06:24:44;;;;;;;0.52;0.52;;;;;;;13.24;96.96;99682.00;5088826;28;20031;-73
2022/05/11 06:27:16;;;;;;;0.20;0.20;;;;;;;13.09;96.96;99679.88;5088870;28;20070;-72
2022/05/11 06:29:42;;;;;;;0.20;0.20;;;;;;;12.91;96.95;99686.50;5088633;28;20020;-73
2022/05/11 06:32:07;;;;;;;0.20;0.20;;;;;;;12.81;97.39;99681.53;5070889;28;20031;-73
2022/05/11 06:34:33;;;;;;;0.20;0.20;;;;;;;12.72;97.87;99677.47;5088871;28;20036;-73
2022/05/11 06:36:58;;;;;;;0.20;0.20;;;;;;;12.69;98.33;99674.09;5088469;28;20052;-73
2022/05/11 06:39:23;;;;;;;0.17;0.17;;;;;;;12.75;98.61;99676.50;5088832;28;20103;-73
2022/05/11 06:41:49;;;;;;;0.20;0.20;;;;;;;12.68;98.71;99662.84;5088378;28;20396;-73
2022/05/11 06:44:14;;;;;;;0.20;0.20;;;;;;;12.67;98.73;99668.09;5087947;28;20025;-73
2022/05/11 06:46:40;;;;;;;0.30;0.30;;;;;;;12.67;98.69;99684.56;5088365;28;20048;-73
2022/05/11 06:49:05;;;;;;;0.20;0.20;;;;;;;12.63;98.52;99673.38;5088569;28;20020;-73
2022/05/11 06:51:30;;;;;;;0.20;0.20;;;;;;;12.47;98.45;99659.09;5088473;28;20028;-74
2022/05/11 06:59:27;;;;;;;0.20;0.20;;;;;;;12.46;98.23;99712.91;5088543;28;20085;-75
2022/05/11 07:01:58;;;;;;;0.60;0.60;;;;;;;12.41;95.38;99706.13;5088465;28;20016;-72
2022/05/11 07:04:25;;;;;;;0.55;0.55;;;;;;;12.35;93.77;99702.78;5070605;28;20032;-71
2022/05/11 07:06:52;;;;;;;0.20;0.20;;;;;;;12.35;92.41;99700.19;5088243;28;20101;-72
2022/05/11 07:09:17;;;;;;;0.20;0.20;;;;;;;12.36;90.92;99706.25;5088458;28;20016;-72
2022/05/11 07:14:26;;;;;;;0.38;0.38;;;;;;;12.56;89.00;99692.66;5088217;28;20157;-74
2022/05/11 07:16:52;;;;;;;0.20;0.20;;;;;;;12.69;87.53;99687.09;5084333;28;20016;-74
2022/05/11 07:19:21;;;;;;;0.20;0.20;;;;;;;12.69;86.04;99685.38;5085095;28;20024;-73
2022/05/11 07:21:46;;;;;;;0.20;0.20;;;;;;;12.73;84.68;99671.34;5084706;28;20029;-74
2022/05/11 07:24:11;;;;;;;0.20;0.20;;;;;;;13.03;87.45;99665.28;5084909;28;20027;-73
2022/05/11 07:26:37;;;;;;;0.28;0.28;;;;;;;13.41;84.80;99674.53;5084659;28;20070;-74
2022/05/11 07:29:02;;;;;;;0.45;0.45;;;;;;;13.69;86.48;99666.69;5084045;28;20042;-72
2022/05/11 07:31:28;;;;;;;0.85;0.68;;;;;;;13.82;83.46;99669.75;5084488;28;20230;-73
2022/05/11 07:33:53;;;;;;;0.32;0.32;;;;;;;13.98;82.64;99658.78;5085034;28;20020;-73
2022/05/11 07:36:20;;;;;;;0.43;0.43;;;;;;;14.05;81.64;99668.13;5084786;28;20035;-74
2022/05/11 07:38:46;;;;;;;1.30;1.30;;;;;;;14.11;79.66;99657.47;5066517;28;20059;-73
2022/05/11 07:41:11;;;;;;;0.20;0.20;;;;;;;14.41;78.65;99663.41;5084785;28;20032;-73
2022/05/11 07:43:38;;;;;;;0.60;0.60;;;;;;;14.89;79.90;99664.25;5066495;28;20538;-73
2022/05/11 07:46:03;;;;;;;1.35;1.25;;;;;;;15.16;75.86;99658.84;5084739;28;20028;-74
2022/05/11 07:48:29;;;;;;;0.20;0.20;;;;;;;15.17;73.52;99664.94;5084674;28;20074;-75
2022/05/11 07:50:55;;;;;;;0.20;0.20;;;;;;;15.12;72.58;99646.81;5084540;28;20024;-73
2022/05/11 07:53:20;;;;;;;0.25;0.25;;;;;;;14.97;71.90;99629.97;5084668;28;20028;-74
2022/05/11 07:55:45;;;;;;;0.63;0.63;;;;;;;15.06;72.29;99647.06;5084635;28;20029;-74
2022/05/11 08:00:57;;;;;;;0.20;0.20;;;;;;;15.04;68.78;99649.75;5084606;28;20036;-73
2022/05/11 08:03:23;;;;;;;0.20;0.20;;;;;;;14.97;69.02;99641.28;5084804;28;20028;-73
2022/05/11 08:05:48;;;;;;;0.20;0.20;;;;;;;15.22;70.69;99655.16;5084450;28;20020;-73
2022/05/11 08:08:14;;;;;;;19.80;6.72;;;;;;;15.39;69.37;99644.00;5066382;28;20019;-73
2022/05/11 08:10:43;;;;;;;21.13;6.60;;;;;;;15.62;68.57;99647.44;5084532;28;20399;-75
2022/05/11 08:13:09;;;;;;;16.80;6.25;;;;;;;15.57;66.14;99638.94;5084382;28;20034;-73
2022/05/11 08:15:37;;;;;;;18.70;5.97;;;;;;;15.47;67.65;99636.72;5084446;28;20021;-74
2022/05/11 08:18:04;;;;;;;19.25;6.07;;;;;;;15.48;66.92;99637.53;5083631;28;20430;-73
2022/05/11 08:20:33;;;;;;;14.45;6.18;;;;;;;15.33;65.80;99625.97;5084246;28;20093;-73
2022/05/11 08:23:00;;;;;;;19.38;7.43;;;;;;;15.28;66.25;99636.59;5083657;28;20043;-75
2022/05/11 08:25:29;;;;;;;14.35;6.22;;;;;;;15.33;66.19;99634.66;5084228;28;20089;-74
2022/05/11 08:27:55;;;;;;;17.33;6.40;;;;;;;15.35;67.19;99627.59;5065617;28;20393;-74
2022/05/11 08:33:22;;;;;;;18.70;6.93;;;;;;;16.00;66.57;99630.19;5083829;28;20059;-75
2022/05/11 08:35:53;;;;;;;22.55;7.85;;;;;;;16.04;65.62;99623.91;5084216;28;20028;-75
2022/05/11 08:38:21;;;;;;;17.48;6.40;;;;;;;16.00;66.61;99620.59;5083716;28;20037;-75
2022/05/11 08:40:55;;;;;;;12.18;5.95;;;;;;;16.11;66.66;99627.97;5084050;28;20287;-77
2022/05/11 08:43:22;;;;;;;18.58;6.38;;;;;;;16.07;65.96;99634.25;5084046;28;20020;-73
2022/05/11 08:46:00;;;;;;;16.48;6.13;;;;;;;15.85;64.52;99638.63;5083727;28;20128;-74
2022/05/11 08:49:01;;;;;;;15.18;5.30;;;;;;;15.80;63.04;99624.88;5083468;28;20028;-74
2022/05/11 08:51:31;;;;;;;18.63;6.67;;;;;;;15.72;63.98;99634.81;5075062;28;20032;-73
2022/05/11 08:54:21;;;;;;;18.13;5.90;;;;;;;15.50;63.56;99635.72;5083508;28;20268;-74
2022/05/11 08:56:48;;;;;;;17.77;7.03;;;;;;;15.33;64.44;99618.97;5083734;28;20035;-75
2022/05/11 08:59:21;;;;;;;15.63;6.18;;;;;;;15.32;64.90;99608.56;5083378;28;20051;-74
2022/05/11 09:01:57;;;;;;;17.75;7.30;;;;;;;15.36;66.01;99592.69;5083601;28;20052;-77
2022/05/11 09:04:31;;;;;;;16.52;5.65;;;;;;;15.31;63.26;99585.94;5065211;28;20051;-73
2022/05/11 09:06:57;;;;;;;19.63;8.13;;;;;;;15.21;64.80;99599.38;5065326;28;20096;-74
2022/05/11 09:09:24;;;;;;;19.83;7.75;;;;;;;15.38;65.18;99594.38;5083258;28;20016;-74
2022/05/11 09:11:52;;;;;;;24.45;7.45;;;;;;;15.57;65.14;99582.25;5083453;28;20025;-73
2022/05/11 09:14:25;;;;;;;14.93;5.90;;;;;;;15.45;63.01;99556.59;5083342;28;20032;-74
2022/05/11 09:16:51;;;;;;;17.20;6.88;;;;;;;15.49;63.53;99577.31;5083300;28;20028;-74
2022/05/11 09:19:23;;;;;;;19.50;7.07;;;;;;;15.45;65.25;99572.28;5082730;28;20031;-75
2022/05/11 09:22:04;;;;;;;21.10;7.53;;;;;;;15.42;64.07;99575.03;5082649;28;20036;-73
2022/05/11 09:24:34;;;;;;;16.77;6.75;;;;;;;15.35;63.94;99566.59;5083234;28;20464;-72
2022/05/11 09:27:01;;;;;;;19.35;7.57;;;;;;;15.30;64.92;99563.31;5083050;28;20040;-73
2022/05/11 09:29:40;;;;;;;21.38;7.55;;;;;;;15.20;65.22;99548.03;5082915;28;20511;-73
2022/05/11 09:32:44;;;;;;;21.83;8.65;;;;;;;15.34;65.44;99557.91;5064904;28;20384;-73
2022/05/11 09:35:25;;;;;;;24.65;7.70;;;;;;;15.17;64.42;99545.53;5001156;28;20057;-73
2022/05/11 09:38:03;;;;;;;19.98;8.30;;;;;;;15.15;65.51;99526.44;5000051;28;20125;-73
2022/05/11 09:40:30;;;;;;;18.30;7.30;;;;;;;15.26;65.14;99533.84;5000507;28;20042;-73
2022/05/11 09:43:02;;;;;;;19.35;6.88;;;;;;;15.47;65.76;99537.31;5000679;28;20281;-72
2022/05/11 09:45:39;;;;;;;17.20;7.25;;;;;;;15.68;65.47;99528.59;5000636;28;20030;-74
2022/05/11 09:48:31;;;;;;;13.57;6.00;;;;;;;15.52;63.37;99539.72;4983177;28;20054;-73
2022/05/11 09:51:19;;;;;;;13.75;5.95;;;;;;;15.41;63.83;99524.50;4983478;28;20103;-72
2022/05/11 09:53:55;;;;;;;15.77;6.63;;;;;;;15.52;64.88;99497.88;5000452;28;20030;-75
2022/05/11 09:56:29;;;;;;;15.98;7.60;;;;;;;15.40;65.47;99512.31;5000461;28;20030;-72
2022/05/11 09:58:55;;;;;;;18.70;7.10;;;;;;;15.23;65.30;99513.91;5000513;28;20034;-73
2022/05/11 10:01:29;;;;;;;16.80;7.95;;;;;;;14.91;64.29;99492.56;5000503;28;20392;-73
2022/05/11 10:04:03;;;;;;;17.50;7.30;;;;;;;14.73;65.39;99518.50;4984143;28;20058;-72
2022/05/11 10:06:34;;;;;;;19.77;7.47;;;;;;;14.62;65.92;99505.00;5042226;28;20040;-73
2022/05/11 10:09:00;;;;;;;18.67;7.18;;;;;;;14.45;66.86;99509.16;5082233;28;20033;-74
2022/05/11 10:11:36;;;;;;;17.15;8.13;;;;;;;14.30;67.30;99507.97;5064460;28;20020;-73
2022/05/11 10:22:55;;;;;;;16.30;7.15;;;;;;;13.73;71.18;99471.81;5082257;28;20043;-73
2022/05/11 10:25:26;;;;;;;21.35;9.82;;;;;;;13.69;71.93;99465.84;5082439;28;20049;-73
2022/05/11 10:27:54;;;;;;;22.88;9.77;;;;;;;13.60;72.39;99467.06;5082228;28;20032;-72
2022/05/11 10:30:25;;;;;;;18.67;10.20;;;;;;;13.62;72.89;99460.03;5082146;28;20024;-73
2022/05/11 10:33:16;;;;;;;22.60;11.10;;;;;;;13.50;73.83;99463.03;5082370;28;20102;-74
2022/05/11 10:36:08;;;;;;;27.58;12.73;;;;;;;13.43;74.77;99469.38;5082237;28;20345;-74
2022/05/11 10:39:04;;;;;;;21.30;10.93;;;;;;;13.37;75.62;99460.88;5070742;28;20100;-73
2022/05/11 10:41:47;;;;;;;22.83;13.55;;;;;;;13.26;76.01;99444.75;5082321;28;20025;-73
2022/05/11 10:44:36;;;;;;;27.30;14.00;;;;;;;13.16;76.77;99435.56;5082310;28;20032;-73
2022/05/11 10:47:33;;;;;;;28.35;13.48;;;;;;;13.16;77.15;99431.22;5082028;28;20017;-71
2022/05/11 10:50:23;;;;;;;27.25;15.32;;;;;;;13.20;77.88;99424.13;5081909;28;20046;-72
2022/05/11 10:53:21;;;;;;;26.55;15.23;;;;;;;13.14;78.57;99422.59;5085338;28;20029;-73
2022/05/11 10:56:10;;;;;;;28.25;14.55;;;;;;;13.12;79.23;99430.47;5085543;28;20047;-73
2022/05/11 10:58:54;;;;;;;27.10;14.18;;;;;;;13.03;79.72;99433.38;5067426;28;20017;-70
2022/05/11 11:01:22;;;;;;;27.88;14.60;;;;;;;12.89;80.50;99424.28;5085593;28;20047;-71
2022/05/11 11:03:51;;;;;;;27.55;13.63;;;;;;;12.83;81.03;99440.13;5085940;28;20472;-70
2022/05/11 11:09:07;;;;;;;29.52;14.13;;;;;;;12.61;82.48;99453.00;5085817;28;20121;-73
2022/05/11 11:11:41;;;;;;;31.95;18.58;;;;;;;12.44;83.12;99446.59;5085678;28;20036;-71
2022/05/11 11:14:09;;;;;;;30.98;14.98;;;;;;;12.27;84.01;99440.16;5085710;28;20054;-71
2022/05/11 11:16:38;;;;;;;47.70;22.55;;;;;;;12.12;84.97;99444.06;5085733;28;20028;-72
2022/05/11 11:19:06;;;;;;;34.40;19.20;;;;;;;11.92;85.75;99444.63;5067128;28;20024;-74
2022/05/11 11:21:32;;;;;;;52.58;21.33;;;;;;;11.76;86.69;99450.28;5084893;28;20020;-74
2022/05/11 11:24:17;;;;;;;58.03;22.52;;;;;;;11.59;88.22;99455.97;5085041;28;20048;-75
2022/05/11 11:26:52;;;;;;;45.08;18.77;;;;;;;11.49;89.34;99449.31;5066692;28;20024;-78
2022/05/11 11:29:58;;;;;;;50.50;22.80;;;;;;;11.46;90.79;99449.41;5084179;28;20024;-77
2022/05/11 11:32:24;;;;;;;51.05;23.52;;;;;;;11.31;91.57;99443.72;5084840;28;20499;-79
2022/05/11 11:35:21;;;;;;;50.85;22.10;;;;;;;11.30;92.67;99452.41;5084929;28;20025;-78
2022/05/11 11:37:58;;;;;;;51.38;24.15;;;;;;;11.29;93.07;99445.53;5058886;28;20075;-78
2022/05/11 11:40:28;;;;;;;54.25;20.13;;;;;;;11.23;93.25;99432.72;5085042;28;20045;-74
2022/05/11 11:42:53;;;;;;;56.88;25.60;;;;;;;11.28;93.33;99447.25;5066578;28;20044;-71
2022/05/11 11:45:26;;;;;;;56.15;22.90;;;;;;;11.25;93.71;99433.50;5084843;28;20024;-71
2022/05/11 11:48:02;;;;;;;64.55;26.75;;;;;;;11.18;94.45;99429.38;5084818;28;20041;-71
2022/05/11 11:50:55;;;;;;;39.60;16.65;;;;;;;11.12;94.99;99435.56;5066312;28;20050;-73
2022/05/11 11:53:28;;;;;;;56.05;23.48;;;;;;;11.12;95.11;99436.44;5084304;28;20028;-72
2022/05/11 11:55:54;;;;;;;57.13;25.90;;;;;;;11.04;96.01;99422.78;5084405;28;20056;-72
2022/05/11 11:58:26;;;;;;;52.03;20.00;;;;;;;11.00;96.78;99418.56;5084311;28;20024;-72
2022/05/11 12:00:59;;;;;;;59.30;27.60;;;;;;;11.07;96.61;99427.91;5066052;28;20048;-73
2022/05/11 12:03:28;;;;;;;38.28;18.48;;;;;;;10.97;96.76;99422.13;5084433;28;20016;-73
2022/05/11 12:17:02;;;;;;;30.75;13.38;;;;;;;10.90;97.68;99431.81;5084295;28;20105;-74
2022/05/11 12:19:32;;;;;;;21.05;8.93;;;;;;;10.89;96.35;99411.91;5084087;28;20020;-74
2022/05/11 12:22:13;;;;;;;29.38;12.73;;;;;;;10.62;96.18;99409.09;5083985;28;20437;-75
2022/05/11 12:25:01;;;;;;;16.33;7.88;;;;;;;10.46;96.00;99410.34;5084263;28;20120;-76
2022/05/11 12:27:33;;;;;;;10.18;4.45;;;;;;;10.21;95.33;99406.59;5084089;28;20035;-77